sensor_id;sensor_type;location;lat;lon;timestamp;pressure;altitude;pressure_sealevel;temperature;humidity
54994;BME280;40891;47.242;8.648;2023-04-26T00:02:12;96354.78;;;7.20;100.00
54994;BME280;40891;47.242;8.648;2023-04-26T00:04:40;96359.63;;;7.16;100.00
54994;BME280;40891;47.242;8.648;2023-04-26T00:07:06;96355.84;;;7.26;100.00
54994;BME280;40891;47.242;8.648;2023-04-26T00:09:31;96364.13;;;7.26;100.00
54994;BME280;40891;47.242;8.648;2023-04-26T00:11:57;96361.44;;;7.22;100.00
54994;BME280;40891;47.242;8.648;2023-04-26T00:14:22;96375.53;;;7.44;100.00
54994;BME280;40891;47.242;8.648;2023-04-26T00:16:48;96370.78;;;7.28;100.00
54994;BME280;40891;47.242;8.648;2023-04-26T00:19:13;96375.53;;;7.28;100.00
54994;BME280;40891;47.242;8.648;2023-04-26T00:21:40;96367.56;;;7.30;100.00
54994;BME280;40891;47.242;8.648;2023-04-26T00:24:06;96365.41;;;7.37;100.00
54994;BME280;40891;47.242;8.648;2023-04-26T00:26:32;96369.38;;;7.36;100.00
54994;BME280;40891;47.242;8.648;2023-04-26T00:29:00;96365.25;;;7.28;100.00
54994;BME280;40891;47.242;8.648;2023-04-26T00:31:26;96367.22;;;7.28;100.00
54994;BME280;40891;47.242;8.648;2023-04-26T00:33:51;96372.25;;;7.33;100.00
54994;BME280;40891;47.242;8.648;2023-04-26T00:36:17;96370.06;;;7.24;100.00
54994;BME280;40891;47.242;8.648;2023-04-26T00:38:46;96377.34;;;7.18;100.00
54994;BME280;40891;47.242;8.648;2023-04-26T00:41:12;96373.94;;;7.11;100.00
54994;BME280;40891;47.242;8.648;2023-04-26T00:43:37;96378.34;;;7.08;100.00
54994;BME280;40891;47.242;8.648;2023-04-26T00:46:04;96375.59;;;7.08;100.00
54994;BME280;40891;47.242;8.648;2023-04-26T00:48:30;96367.38;;;7.05;100.00
54994;BME280;40891;47.242;8.648;2023-04-26T00:50:55;96376.44;;;7.05;100.00
54994;BME280;40891;47.242;8.648;2023-04-26T00:53:21;96373.59;;;7.09;100.00
54994;BME280;40891;47.242;8.648;2023-04-26T00:55:47;96368.34;;;7.14;100.00
54994;BME280;40891;47.242;8.648;2023-04-26T00:58:13;96373.69;;;7.05;100.00
54994;BME280;40891;47.242;8.648;2023-04-26T01:00:38;96373.09;;;6.98;100.00
54994;BME280;40891;47.242;8.648;2023-04-26T01:03:04;96374.78;;;6.92;100.00
54994;BME280;40891;47.242;8.648;2023-04-26T01:05:29;96368.56;;;6.88;100.00
54994;BME280;40891;47.242;8.648;2023-04-26T01:07:55;96379.34;;;6.82;100.00
54994;BME280;40891;47.242;8.648;2023-04-26T01:10:20;96375.78;;;6.81;100.00
54994;BME280;40891;47.242;8.648;2023-04-26T01:12:45;96373.56;;;6.76;100.00
54994;BME280;40891;47.242;8.648;2023-04-26T01:15:12;96367.16;;;6.79;100.00
54994;BME280;40891;47.242;8.648;2023-04-26T01:17:37;96370.06;;;6.72;100.00
54994;BME280;40891;47.242;8.648;2023-04-26T01:20:04;96368.25;;;6.66;100.00
54994;BME280;40891;47.242;8.648;2023-04-26T01:22:33;96364.34;;;6.63;100.00
54994;BME280;40891;47.242;8.648;2023-04-26T01:25:00;96363.16;;;6.64;100.00
54994;BME280;40891;47.242;8.648;2023-04-26T01:27:28;96365.03;;;6.67;100.00
54994;BME280;40891;47.242;8.648;2023-04-26T01:29:53;96356.25;;;6.72;100.00
54994;BME280;40891;47.242;8.648;2023-04-26T01:32:19;96366.91;;;6.74;100.00
54994;BME280;40891;47.242;8.648;2023-04-26T01:34:44;96364.72;;;6.81;100.00
54994;BME280;40891;47.242;8.648;2023-04-26T01:37:10;96360.09;;;6.78;100.00
54994;BME280;40891;47.242;8.648;2023-04-26T01:39:36;96360.78;;;6.82;100.00
54994;BME280;40891;47.242;8.648;2023-04-26T01:42:02;96355.69;;;6.81;100.00
54994;BME280;40891;47.242;8.648;2023-04-26T01:44:28;96357.13;;;6.69;100.00
54994;BME280;40891;47.242;8.648;2023-04-26T01:46:54;96360.06;;;6.62;100.00
54994;BME280;40891;47.242;8.648;2023-04-26T01:49:19;96360.91;;;6.59;100.00
54994;BME280;40891;47.242;8.648;2023-04-26T01:51:44;96361.44;;;6.51;100.00
54994;BME280;40891;47.242;8.648;2023-04-26T01:54:10;96356.88;;;6.44;100.00
54994;BME280;40891;47.242;8.648;2023-04-26T01:56:35;96355.47;;;6.36;100.00
54994;BME280;40891;47.242;8.648;2023-04-26T01:59:01;96356.75;;;6.32;100.00
54994;BME280;40891;47.242;8.648;2023-04-26T02:01:26;96351.38;;;6.25;100.00
54994;BME280;40891;47.242;8.648;2023-04-26T02:03:51;96352.47;;;6.27;100.00
54994;BME280;40891;47.242;8.648;2023-04-26T02:06:17;96351.00;;;6.23;100.00
54994;BME280;40891;47.242;8.648;2023-04-26T02:08:42;96349.59;;;6.14;100.00
54994;BME280;40891;47.242;8.648;2023-04-26T02:11:07;96344.34;;;6.20;100.00
54994;BME280;40891;47.242;8.648;2023-04-26T02:13:33;96353.16;;;6.15;100.00
54994;BME280;40891;47.242;8.648;2023-04-26T02:15:58;96351.28;;;6.08;100.00
54994;BME280;40891;47.242;8.648;2023-04-26T02:18:24;96353.47;;;5.97;100.00
54994;BME280;40891;47.242;8.648;2023-04-26T02:20:49;96342.53;;;5.94;100.00
54994;BME280;40891;47.242;8.648;2023-04-26T02:23:15;96348.53;;;5.89;100.00
54994;BME280;40891;47.242;8.648;2023-04-26T02:25:41;96345.03;;;5.85;100.00
54994;BME280;40891;47.242;8.648;2023-04-26T02:28:09;96352.22;;;5.79;100.00
54994;BME280;40891;47.242;8.648;2023-04-26T02:30:34;96352.72;;;5.74;100.00
54994;BME280;40891;47.242;8.648;2023-04-26T02:32:59;96349.25;;;5.70;100.00
54994;BME280;40891;47.242;8.648;2023-04-26T02:35:25;96340.22;;;5.66;100.00
54994;BME280;40891;47.242;8.648;2023-04-26T02:37:50;96341.09;;;5.63;100.00
54994;BME280;40891;47.242;8.648;2023-04-26T02:40:19;96353.66;;;5.64;100.00
54994;BME280;40891;47.242;8.648;2023-04-26T02:42:46;96334.78;;;5.62;100.00
54994;BME280;40891;47.242;8.648;2023-04-26T02:45:11;96340.22;;;5.66;100.00
54994;BME280;40891;47.242;8.648;2023-04-26T02:47:37;96337.59;;;5.59;100.00
54994;BME280;40891;47.242;8.648;2023-04-26T02:50:04;96345.16;;;5.55;100.00
54994;BME280;40891;47.242;8.648;2023-04-26T02:52:29;96333.44;;;5.50;100.00
54994;BME280;40891;47.242;8.648;2023-04-26T02:54:55;96342.53;;;5.47;100.00
54994;BME280;40891;47.242;8.648;2023-04-26T02:57:20;96337.44;;;5.46;100.00
54994;BME280;40891;47.242;8.648;2023-04-26T02:59:46;96337.44;;;5.46;100.00
54994;BME280;40891;47.242;8.648;2023-04-26T03:02:11;96344.88;;;5.49;100.00
54994;BME280;40891;47.242;8.648;2023-04-26T03:04:36;96339.44;;;5.45;100.00
54994;BME280;40891;47.242;8.648;2023-04-26T03:07:02;96337.84;;;5.44;100.00
54994;BME280;40891;47.242;8.648;2023-04-26T03:09:28;96340.25;;;5.42;100.00
54994;BME280;40891;47.242;8.648;2023-04-26T03:11:54;96330.56;;;5.34;100.00
54994;BME280;40891;47.242;8.648;2023-04-26T03:14:19;96327.44;;;5.32;100.00
54994;BME280;40891;47.242;8.648;2023-04-26T03:16:45;96336.56;;;5.29;100.00
54994;BME280;40891;47.242;8.648;2023-04-26T03:19:10;96327.97;;;5.24;100.00
54994;BME280;40891;47.242;8.648;2023-04-26T03:21:35;96334.69;;;5.23;100.00
54994;BME280;40891;47.242;8.648;2023-04-26T03:24:01;96335.09;;;5.21;100.00
54994;BME280;40891;47.242;8.648;2023-04-26T03:26:26;96349.31;;;5.20;100.00
54994;BME280;40891;47.242;8.648;2023-04-26T03:28:52;96346.97;;;5.18;100.00
54994;BME280;40891;47.242;8.648;2023-04-26T03:31:17;96348.16;;;5.17;100.00
54994;BME280;40891;47.242;8.648;2023-04-26T03:33:44;96355.22;;;5.18;100.00
54994;BME280;40891;47.242;8.648;2023-04-26T03:36:09;96353.31;;;5.15;100.00
54994;BME280;40891;47.242;8.648;2023-04-26T03:38:34;96351.41;;;5.12;100.00
54994;BME280;40891;47.242;8.648;2023-04-26T03:41:00;96356.19;;;5.08;100.00
54994;BME280;40891;47.242;8.648;2023-04-26T03:43:25;96349.53;;;5.06;100.00
54994;BME280;40891;47.242;8.648;2023-04-26T03:45:51;96352.69;;;5.04;100.00
54994;BME280;40891;47.242;8.648;2023-04-26T03:48:16;96342.53;;;5.01;100.00
54994;BME280;40891;47.242;8.648;2023-04-26T03:50:42;96348.03;;;5.01;100.00
54994;BME280;40891;47.242;8.648;2023-04-26T03:53:09;96343.28;;;5.02;100.00
54994;BME280;40891;47.242;8.648;2023-04-26T03:55:35;96331.44;;;5.05;100.00
54994;BME280;40891;47.242;8.648;2023-04-26T03:58:01;96332.94;;;5.09;100.00
54994;BME280;40891;47.242;8.648;2023-04-26T04:00:27;96344.31;;;5.11;100.00
54994;BME280;40891;47.242;8.648;2023-04-26T04:02:52;96336.44;;;5.13;100.00
54994;BME280;40891;47.242;8.648;2023-04-26T04:05:18;96337.63;;;5.12;100.00
54994;BME280;40891;47.242;8.648;2023-04-26T04:07:43;96335.66;;;5.13;100.00
54994;BME280;40891;47.242;8.648;2023-04-26T04:10:09;96337.63;;;5.12;100.00
54994;BME280;40891;47.242;8.648;2023-04-26T04:12:35;96334.50;;;5.10;100.00
54994;BME280;40891;47.242;8.648;2023-04-26T04:15:00;96333.28;;;5.11;100.00
54994;BME280;40891;47.242;8.648;2023-04-26T04:17:26;96333.13;;;5.22;100.00
54994;BME280;40891;47.242;8.648;2023-04-26T04:19:52;96333.50;;;5.24;100.00
54994;BME280;40891;47.242;8.648;2023-04-26T04:22:17;96334.28;;;5.24;100.00
54994;BME280;40891;47.242;8.648;2023-04-26T04:24:42;96329.53;;;5.25;100.00
54994;BME280;40891;47.242;8.648;2023-04-26T04:27:09;96334.63;;;5.26;100.00
54994;BME280;40891;47.242;8.648;2023-04-26T04:29:34;96335.06;;;5.25;100.00
54994;BME280;40891;47.242;8.648;2023-04-26T04:32:00;96329.94;;;5.23;100.00
54994;BME280;40891;47.242;8.648;2023-04-26T04:34:26;96331.16;;;5.22;100.00
54994;BME280;40891;47.242;8.648;2023-04-26T04:36:51;96332.78;;;5.20;100.00
54994;BME280;40891;47.242;8.648;2023-04-26T04:39:16;96327.66;;;5.18;100.00
54994;BME280;40891;47.242;8.648;2023-04-26T04:41:42;96341.84;;;5.20;100.00
54994;BME280;40891;47.242;8.648;2023-04-26T04:44:14;96320.97;;;5.19;100.00
54994;BME280;40891;47.242;8.648;2023-04-26T04:46:41;96329.19;;;5.23;100.00
54994;BME280;40891;47.242;8.648;2023-04-26T04:49:06;96331.53;;;5.24;100.00
54994;BME280;40891;47.242;8.648;2023-04-26T04:51:33;96332.31;;;5.25;100.00
54994;BME280;40891;47.242;8.648;2023-04-26T04:53:58;96329.06;;;5.30;100.00
54994;BME280;40891;47.242;8.648;2023-04-26T04:56:24;96333.72;;;5.33;100.00
54994;BME280;40891;47.242;8.648;2023-04-26T04:58:50;96332.06;;;5.39;100.00
54994;BME280;40891;47.242;8.648;2023-04-26T05:01:15;96343.00;;;5.42;100.00
54994;BME280;40891;47.242;8.648;2023-04-26T05:03:40;96336.97;;;5.51;100.00
54994;BME280;40891;47.242;8.648;2023-04-26T05:06:06;96344.34;;;5.58;100.00
54994;BME280;40891;47.242;8.648;2023-04-26T05:08:32;96341.44;;;5.65;100.00
54994;BME280;40891;47.242;8.648;2023-04-26T05:10:57;96344.50;;;5.70;100.00
54994;BME280;40891;47.242;8.648;2023-04-26T05:13:23;96345.63;;;5.73;100.00
54994;BME280;40891;47.242;8.648;2023-04-26T05:15:48;96351.88;;;5.77;100.00
54994;BME280;40891;47.242;8.648;2023-04-26T05:18:14;96347.91;;;5.78;100.00
54994;BME280;40891;47.242;8.648;2023-04-26T05:20:39;96354.19;;;5.78;100.00
54994;BME280;40891;47.242;8.648;2023-04-26T05:23:05;96353.50;;;5.74;100.00
54994;BME280;40891;47.242;8.648;2023-04-26T05:25:30;96353.53;;;5.71;100.00
54994;BME280;40891;47.242;8.648;2023-04-26T05:27:56;96361.91;;;5.67;100.00
54994;BME280;40891;47.242;8.648;2023-04-26T05:30:21;96361.09;;;5.67;100.00
54994;BME280;40891;47.242;8.648;2023-04-26T05:32:46;96363.44;;;5.68;100.00
54994;BME280;40891;47.242;8.648;2023-04-26T05:35:12;96364.16;;;5.72;100.00
54994;BME280;40891;47.242;8.648;2023-04-26T05:37:37;96366.84;;;5.76;100.00
54994;BME280;40891;47.242;8.648;2023-04-26T05:40:04;96366.34;;;5.84;100.00
54994;BME280;40891;47.242;8.648;2023-04-26T05:42:30;96354.63;;;6.00;100.00
54994;BME280;40891;47.242;8.648;2023-04-26T05:44:57;96357.59;;;6.09;100.00
54994;BME280;40891;47.242;8.648;2023-04-26T05:47:22;96357.78;;;6.18;100.00
54994;BME280;40891;47.242;8.648;2023-04-26T05:49:48;96355.97;;;6.31;100.00
54994;BME280;40891;47.242;8.648;2023-04-26T05:52:13;96358.09;;;6.43;100.00
54994;BME280;40891;47.242;8.648;2023-04-26T05:54:38;96362.81;;;6.62;100.00
54994;BME280;40891;47.242;8.648;2023-04-26T05:57:04;96358.88;;;6.79;100.00
54994;BME280;40891;47.242;8.648;2023-04-26T05:59:29;96359.66;;;6.96;100.00
54994;BME280;40891;47.242;8.648;2023-04-26T06:01:57;96359.97;;;7.18;100.00
54994;BME280;40891;47.242;8.648;2023-04-26T06:04:22;96357.53;;;7.36;100.00
54994;BME280;40891;47.242;8.648;2023-04-26T06:06:48;96361.94;;;7.66;100.00
54994;BME280;40891;47.242;8.648;2023-04-26T06:09:13;96362.97;;;7.88;100.00
54994;BME280;40891;47.242;8.648;2023-04-26T06:11:39;96365.69;;;8.04;100.00
54994;BME280;40891;47.242;8.648;2023-04-26T06:14:04;96363.72;;;8.17;100.00
54994;BME280;40891;47.242;8.648;2023-04-26T06:16:30;96362.41;;;8.21;100.00
54994;BME280;40891;47.242;8.648;2023-04-26T06:18:55;96365.91;;;8.26;100.00
54994;BME280;40891;47.242;8.648;2023-04-26T06:21:20;96371.34;;;8.29;100.00
54994;BME280;40891;47.242;8.648;2023-04-26T06:23:46;96367.94;;;8.38;100.00
54994;BME280;40891;47.242;8.648;2023-04-26T06:26:11;96372.94;;;8.43;100.00
54994;BME280;40891;47.242;8.648;2023-04-26T06:28:37;96369.75;;;8.44;100.00
54994;BME280;40891;47.242;8.648;2023-04-26T06:31:02;96373.19;;;8.48;100.00
54994;BME280;40891;47.242;8.648;2023-04-26T06:33:27;96381.75;;;8.54;100.00
54994;BME280;40891;47.242;8.648;2023-04-26T06:35:53;96379.31;;;8.56;100.00
54994;BME280;40891;47.242;8.648;2023-04-26T06:38:18;96367.69;;;8.61;100.00
54994;BME280;40891;47.242;8.648;2023-04-26T06:40:43;96370.69;;;8.79;100.00
54994;BME280;40891;47.242;8.648;2023-04-26T06:43:09;96365.66;;;8.61;99.41
54994;BME280;40891;47.242;8.648;2023-04-26T06:45:34;96377.31;;;8.69;100.00
54994;BME280;40891;47.242;8.648;2023-04-26T06:48:00;96372.56;;;8.69;100.00
54994;BME280;40891;47.242;8.648;2023-04-26T06:50:26;96368.25;;;8.81;100.00
54994;BME280;40891;47.242;8.648;2023-04-26T06:52:51;96370.81;;;8.88;100.00
54994;BME280;40891;47.242;8.648;2023-04-26T06:55:17;96365.81;;;8.83;97.81
54994;BME280;40891;47.242;8.648;2023-04-26T06:57:43;96361.63;;;8.91;98.24
54994;BME280;40891;47.242;8.648;2023-04-26T07:00:08;96363.94;;;8.93;98.65
54994;BME280;40891;47.242;8.648;2023-04-26T07:02:34;96360.66;;;9.10;99.72
54994;BME280;40891;47.242;8.648;2023-04-26T07:04:59;96365.41;;;9.22;100.00
54994;BME280;40891;47.242;8.648;2023-04-26T07:07:25;96361.63;;;9.41;100.00
54994;BME280;40891;47.242;8.648;2023-04-26T07:09:51;96363.41;;;9.35;97.81
54994;BME280;40891;47.242;8.648;2023-04-26T07:12:17;96360.94;;;9.50;97.90
54994;BME280;40891;47.242;8.648;2023-04-26T07:14:42;96353.72;;;9.65;96.81
54994;BME280;40891;47.242;8.648;2023-04-26T07:17:10;96360.63;;;9.61;96.46
54994;BME280;40891;47.242;8.648;2023-04-26T07:19:36;96360.94;;;9.63;95.41
54994;BME280;40891;47.242;8.648;2023-04-26T07:22:01;96357.38;;;9.62;96.82
54994;BME280;40891;47.242;8.648;2023-04-26T07:24:27;96358.59;;;9.61;93.54
54994;BME280;40891;47.242;8.648;2023-04-26T07:26:53;96354.59;;;9.62;90.97
54994;BME280;40891;47.242;8.648;2023-04-26T07:29:19;96360.25;;;9.58;91.91
54994;BME280;40891;47.242;8.648;2023-04-26T07:31:45;96353.16;;;9.57;94.36
54994;BME280;40891;47.242;8.648;2023-04-26T07:34:11;96352.38;;;9.70;93.63
54994;BME280;40891;47.242;8.648;2023-04-26T07:36:36;96352.88;;;9.90;90.95
54994;BME280;40891;47.242;8.648;2023-04-26T07:39:02;96354.28;;;9.94;89.70
54994;BME280;40891;47.242;8.648;2023-04-26T07:41:29;96346.16;;;10.00;91.64
54994;BME280;40891;47.242;8.648;2023-04-26T07:43:54;96339.59;;;10.06;88.97
54994;BME280;40891;47.242;8.648;2023-04-26T07:46:19;96344.09;;;10.25;90.96
54994;BME280;40891;47.242;8.648;2023-04-26T07:48:45;96337.56;;;10.41;93.25
54994;BME280;40891;47.242;8.648;2023-04-26T07:51:12;96346.03;;;10.59;90.89
54994;BME280;40891;47.242;8.648;2023-04-26T07:53:38;96341.31;;;10.69;91.21
54994;BME280;40891;47.242;8.648;2023-04-26T07:56:05;96337.81;;;10.77;90.29
54994;BME280;40891;47.242;8.648;2023-04-26T07:58:32;96329.97;;;10.85;89.45
54994;BME280;40891;47.242;8.648;2023-04-26T08:00:58;96335.56;;;10.94;86.62
54994;BME280;40891;47.242;8.648;2023-04-26T08:03:23;96332.47;;;10.92;87.84
54994;BME280;40891;47.242;8.648;2023-04-26T08:05:49;96327.91;;;11.07;88.45
54994;BME280;40891;47.242;8.648;2023-04-26T08:08:14;96323.16;;;11.17;87.72
54994;BME280;40891;47.242;8.648;2023-04-26T08:10:40;96323.28;;;11.13;83.09
54994;BME280;40891;47.242;8.648;2023-04-26T08:13:05;96325.59;;;11.15;86.93
54994;BME280;40891;47.242;8.648;2023-04-26T08:15:31;96316.75;;;11.38;87.08
54994;BME280;40891;47.242;8.648;2023-04-26T08:17:56;96319.06;;;11.48;87.28
54994;BME280;40891;47.242;8.648;2023-04-26T08:20:22;96311.28;;;11.83;87.01
54994;BME280;40891;47.242;8.648;2023-04-26T08:22:47;96312.53;;;12.09;83.51
54994;BME280;40891;47.242;8.648;2023-04-26T08:25:14;96304.31;;;12.33;83.03
54994;BME280;40891;47.242;8.648;2023-04-26T08:27:39;96310.16;;;12.62;83.13
54994;BME280;40891;47.242;8.648;2023-04-26T08:30:06;96310.94;;;12.63;78.71
54994;BME280;40891;47.242;8.648;2023-04-26T08:32:31;96298.47;;;12.91;79.39
54994;BME280;40891;47.242;8.648;2023-04-26T08:34:59;96304.63;;;13.04;76.01
54994;BME280;40891;47.242;8.648;2023-04-26T08:37:24;96306.50;;;13.07;74.54
54994;BME280;40891;47.242;8.648;2023-04-26T08:39:50;96307.41;;;13.13;73.74
54994;BME280;40891;47.242;8.648;2023-04-26T08:42:16;96307.97;;;13.26;72.62
54994;BME280;40891;47.242;8.648;2023-04-26T08:44:43;96305.78;;;13.30;72.21
54994;BME280;40891;47.242;8.648;2023-04-26T08:47:22;96303.91;;;13.36;72.66
54994;BME280;40891;47.242;8.648;2023-04-26T08:49:58;96305.47;;;13.28;71.48
54994;BME280;40891;47.242;8.648;2023-04-26T08:52:28;96302.25;;;13.21;71.32
54994;BME280;40891;47.242;8.648;2023-04-26T08:54:55;96307.63;;;13.33;73.79
54994;BME280;40891;47.242;8.648;2023-04-26T08:57:23;96306.50;;;13.40;72.80
54994;BME280;40891;47.242;8.648;2023-04-26T08:59:48;96309.59;;;13.42;70.69
54994;BME280;40891;47.242;8.648;2023-04-26T09:02:18;96305.09;;;13.44;70.75
54994;BME280;40891;47.242;8.648;2023-04-26T09:04:47;96306.25;;;13.61;71.11
54994;BME280;40891;47.242;8.648;2023-04-26T09:09:53;96311.19;;;13.90;69.16
54994;BME280;40891;47.242;8.648;2023-04-26T09:12:21;96303.28;;;14.27;68.91
54994;BME280;40891;47.242;8.648;2023-04-26T09:14:47;96303.13;;;14.30;66.29
54994;BME280;40891;47.242;8.648;2023-04-26T09:17:33;96309.19;;;14.29;66.45
54994;BME280;40891;47.242;8.648;2023-04-26T09:19:59;96309.34;;;14.64;67.44
54994;BME280;40891;47.242;8.648;2023-04-26T09:22:35;96310.63;;;15.07;67.50
54994;BME280;40891;47.242;8.648;2023-04-26T09:25:03;96300.47;;;15.24;66.81
54994;BME280;40891;47.242;8.648;2023-04-26T09:27:37;96312.78;;;15.46;62.61
54994;BME280;40891;47.242;8.648;2023-04-26T09:40:19;96285.34;;;17.65;58.07
54994;BME280;40891;47.242;8.648;2023-04-26T09:42:44;96286.72;;;17.86;56.05
54994;BME280;40891;47.242;8.648;2023-04-26T09:45:10;96291.81;;;18.41;51.48
54994;BME280;40891;47.242;8.648;2023-04-26T09:47:35;96283.34;;;18.30;51.94
54994;BME280;40891;47.242;8.648;2023-04-26T09:50:01;96284.97;;;18.53;52.43
54994;BME280;40891;47.242;8.648;2023-04-26T09:52:26;96271.75;;;19.09;50.51
54994;BME280;40891;47.242;8.648;2023-04-26T09:54:53;96283.00;;;18.98;49.39
54994;BME280;40891;47.242;8.648;2023-04-26T09:57:20;96274.47;;;18.54;50.81
54994;BME280;40891;47.242;8.648;2023-04-26T09:59:51;96280.72;;;18.15;52.91
54994;BME280;40891;47.242;8.648;2023-04-26T10:02:25;96277.66;;;18.19;51.01
54994;BME280;40891;47.242;8.648;2023-04-26T10:04:53;96282.84;;;18.37;51.04
54994;BME280;40891;47.242;8.648;2023-04-26T10:07:20;96283.72;;;18.65;48.00
54994;BME280;40891;47.242;8.648;2023-04-26T10:09:47;96266.88;;;19.04;45.34
54994;BME280;40891;47.242;8.648;2023-04-26T10:12:15;96268.94;;;19.37;47.51
54994;BME280;40891;47.242;8.648;2023-04-26T10:14:41;96265.59;;;19.33;46.98
54994;BME280;40891;47.242;8.648;2023-04-26T10:17:08;96257.66;;;20.33;43.38
54994;BME280;40891;47.242;8.648;2023-04-26T10:19:35;96253.25;;;20.43;42.22
54994;BME280;40891;47.242;8.648;2023-04-26T10:22:07;96254.16;;;21.03;40.16
54994;BME280;40891;47.242;8.648;2023-04-26T10:24:34;96254.13;;;21.09;41.12
54994;BME280;40891;47.242;8.648;2023-04-26T10:27:01;96245.75;;;21.57;40.48
54994;BME280;40891;47.242;8.648;2023-04-26T10:32:19;96239.75;;;21.90;40.79
54994;BME280;40891;47.242;8.648;2023-04-26T10:35:08;96231.41;;;21.74;39.83
54994;BME280;40891;47.242;8.648;2023-04-26T10:37:35;96236.94;;;21.36;41.85
54994;BME280;40891;47.242;8.648;2023-04-26T10:40:22;96237.03;;;20.90;42.71
54994;BME280;40891;47.242;8.648;2023-04-26T10:42:48;96238.78;;;20.58;41.91
54994;BME280;40891;47.242;8.648;2023-04-26T10:45:27;96229.94;;;20.31;42.74
54994;BME280;40891;47.242;8.648;2023-04-26T10:48:19;96227.69;;;20.65;41.86
54994;BME280;40891;47.242;8.648;2023-04-26T10:51:08;96222.28;;;21.08;38.90
54994;BME280;40891;47.242;8.648;2023-04-26T10:58:48;96209.22;;;21.29;38.30
54994;BME280;40891;47.242;8.648;2023-04-26T11:01:16;96212.09;;;20.53;38.73
54994;BME280;40891;47.242;8.648;2023-04-26T11:03:43;96212.16;;;20.83;37.77
54994;BME280;40891;47.242;8.648;2023-04-26T11:06:25;96209.97;;;21.00;37.84
54994;BME280;40891;47.242;8.648;2023-04-26T11:08:52;96199.09;;;21.39;35.83
54994;BME280;40891;47.242;8.648;2023-04-26T11:11:18;96198.81;;;21.13;35.30
54994;BME280;40891;47.242;8.648;2023-04-26T11:13:44;96201.16;;;21.39;35.00
54994;BME280;40891;47.242;8.648;2023-04-26T11:18:39;96200.56;;;20.86;36.44
54994;BME280;40891;47.242;8.648;2023-04-26T11:21:05;96192.78;;;20.63;37.00
54994;BME280;40891;47.242;8.648;2023-04-26T11:23:31;96194.09;;;21.27;35.94
54994;BME280;40891;47.242;8.648;2023-04-26T11:25:58;96189.19;;;21.51;34.61
54994;BME280;40891;47.242;8.648;2023-04-26T11:28:24;96195.88;;;22.21;32.79
54994;BME280;40891;47.242;8.648;2023-04-26T11:30:50;96192.03;;;22.37;33.83
54994;BME280;40891;47.242;8.648;2023-04-26T11:33:20;96193.72;;;22.27;33.52
54994;BME280;40891;47.242;8.648;2023-04-26T11:35:54;96195.72;;;22.13;34.43
54994;BME280;40891;47.242;8.648;2023-04-26T11:38:27;96193.44;;;21.39;34.15
54994;BME280;40891;47.242;8.648;2023-04-26T11:41:02;96193.19;;;21.37;35.19
54994;BME280;40891;47.242;8.648;2023-04-26T11:43:35;96191.84;;;21.92;35.91
54994;BME280;40891;47.242;8.648;2023-04-26T11:46:01;96198.16;;;22.60;34.29
54994;BME280;40891;47.242;8.648;2023-04-26T11:48:30;96189.28;;;22.50;32.31
54994;BME280;40891;47.242;8.648;2023-04-26T11:50:58;96185.81;;;22.94;32.75
54994;BME280;40891;47.242;8.648;2023-04-26T11:53:24;96176.38;;;23.31;31.36
54994;BME280;40891;47.242;8.648;2023-04-26T11:55:50;96179.97;;;23.19;32.20
54994;BME280;40891;47.242;8.648;2023-04-26T11:58:16;96186.31;;;22.93;31.49
54994;BME280;40891;47.242;8.648;2023-04-26T12:00:54;96182.63;;;22.66;32.28
54994;BME280;40891;47.242;8.648;2023-04-26T12:03:20;96183.13;;;22.83;32.69
54994;BME280;40891;47.242;8.648;2023-04-26T12:05:53;96177.88;;;23.06;32.95
54994;BME280;40891;47.242;8.648;2023-04-26T12:08:22;96175.53;;;22.91;31.97
54994;BME280;40891;47.242;8.648;2023-04-26T12:10:48;96183.75;;;22.02;33.00
54994;BME280;40891;47.242;8.648;2023-04-26T12:13:13;96190.88;;;21.12;35.08
54994;BME280;40891;47.242;8.648;2023-04-26T12:15:38;96191.88;;;21.14;36.19
54994;BME280;40891;47.242;8.648;2023-04-26T12:18:08;96194.06;;;21.51;35.49
54994;BME280;40891;47.242;8.648;2023-04-26T12:20:37;96200.09;;;21.18;37.17
54994;BME280;40891;47.242;8.648;2023-04-26T12:23:11;96197.06;;;21.34;36.41
54994;BME280;40891;47.242;8.648;2023-04-26T12:25:38;96199.69;;;20.97;35.83
54994;BME280;40891;47.242;8.648;2023-04-26T12:28:05;96197.88;;;20.70;35.71
54994;BME280;40891;47.242;8.648;2023-04-26T12:30:37;96198.91;;;20.26;36.40
54994;BME280;40891;47.242;8.648;2023-04-26T12:33:03;96190.41;;;20.31;36.70
54994;BME280;40891;47.242;8.648;2023-04-26T12:35:29;96199.09;;;19.76;38.29
54994;BME280;40891;47.242;8.648;2023-04-26T12:37:54;96205.84;;;19.51;38.02
54994;BME280;40891;47.242;8.648;2023-04-26T12:40:24;96201.44;;;19.72;38.56
54994;BME280;40891;47.242;8.648;2023-04-26T12:42:49;96197.00;;;19.88;38.13
54994;BME280;40891;47.242;8.648;2023-04-26T12:45:16;96190.94;;;20.19;36.93
54994;BME280;40891;47.242;8.648;2023-04-26T12:47:43;96190.53;;;20.50;35.60
54994;BME280;40891;47.242;8.648;2023-04-26T12:50:08;96187.19;;;20.87;36.90
54994;BME280;40891;47.242;8.648;2023-04-26T12:52:36;96197.53;;;19.81;36.06
54994;BME280;40891;47.242;8.648;2023-04-26T12:55:01;96194.06;;;19.19;39.25
54994;BME280;40891;47.242;8.648;2023-04-26T12:57:29;96190.47;;;19.46;40.40
54994;BME280;40891;47.242;8.648;2023-04-26T12:59:54;96198.94;;;19.30;39.36
54994;BME280;40891;47.242;8.648;2023-04-26T13:02:21;96181.69;;;19.66;38.84
54994;BME280;40891;47.242;8.648;2023-04-26T13:04:46;96184.69;;;20.78;37.90
54994;BME280;40891;47.242;8.648;2023-04-26T13:07:11;96178.53;;;21.39;35.49
54994;BME280;40891;47.242;8.648;2023-04-26T13:09:37;96180.41;;;21.31;34.28
54994;BME280;40891;47.242;8.648;2023-04-26T13:12:02;96176.41;;;21.93;35.02
54994;BME280;40891;47.242;8.648;2023-04-26T13:14:28;96170.56;;;22.60;33.35
54994;BME280;40891;47.242;8.648;2023-04-26T13:16:53;96165.19;;;23.39;32.35
54994;BME280;40891;47.242;8.648;2023-04-26T13:19:18;96159.50;;;22.94;31.58
54994;BME280;40891;47.242;8.648;2023-04-26T13:21:44;96163.47;;;23.04;31.53